createdAt,value
2023-04-01T00:00:56.062Z,100138.69
2023-04-01T00:03:25.531Z,100143.75
2023-04-01T00:05:53.909Z,100135.81
2023-04-01T00:08:22.425Z,100145.16
2023-04-01T00:10:50.665Z,100140.81
2023-04-01T00:13:20.825Z,100143.34
2023-04-01T00:15:50.001Z,100140.81
2023-04-01T00:18:18.272Z,100142.41
2023-04-01T00:20:47.152Z,100142.16
2023-04-01T00:23:15.634Z,100147.41
2023-04-01T00:25:44.069Z,100151.72
2023-04-01T00:28:12.554Z,100149.13
2023-04-01T00:30:42.103Z,100147.00
2023-04-01T00:33:10.525Z,100146.41
2023-04-01T00:35:39.272Z,100146.41
2023-04-01T00:38:07.821Z,100141.69
2023-04-01T00:40:39.601Z,100144.22
2023-04-01T00:43:13.457Z,100144.47
2023-04-01T00:45:45.029Z,100140.78
2023-04-01T00:48:18.561Z,100139.22
2023-04-01T00:50:52.904Z,100130.75
2023-04-01T00:53:22.537Z,100126.53
2023-04-01T00:55:56.231Z,100124.56
2023-04-01T00:58:28.071Z,100121.00
2023-04-01T01:00:58.695Z,100118.03
2023-04-01T01:03:27.063Z,100120.69
2023-04-01T01:06:09.320Z,100123.69
2023-04-01T01:08:54.925Z,100128.88
2023-04-01T01:11:37.027Z,100125.72
2023-04-01T01:14:26.579Z,100137.28
2023-04-01T01:17:03.209Z,100130.13
2023-04-01T01:19:59.326Z,100126.91
2023-04-01T01:22:47.957Z,100116.75
2023-04-01T01:25:27.922Z,100121.13
2023-04-01T01:28:03.939Z,100127.53
2023-04-01T01:30:44.358Z,100125.84
2023-04-01T01:33:38.058Z,100126.81
2023-04-01T01:36:11.344Z,100127.41
2023-04-01T01:38:40.722Z,100128.38
2023-04-01T01:41:11.043Z,100130.91
2023-04-01T01:43:44.611Z,100134.16
2023-04-01T01:46:20.087Z,100127.09
2023-04-01T01:48:50.158Z,100129.50
2023-04-01T01:51:21.148Z,100131.81
2023-04-01T01:53:49.486Z,100135.94
2023-04-01T01:56:23.744Z,100137.63
2023-04-01T01:58:55.206Z,100140.22
2023-04-01T02:01:28.279Z,100152.25
2023-04-01T02:04:05.346Z,100149.56
2023-04-01T02:06:40.318Z,100158.97
2023-04-01T02:09:11.686Z,100159.59
2023-04-01T02:11:45.209Z,100156.00
2023-04-01T02:14:17.631Z,100153.38
2023-04-01T02:16:49.249Z,100146.25
2023-04-01T02:19:23.643Z,100144.59
2023-04-01T02:21:59.711Z,100158.38
2023-04-01T02:24:31.340Z,100146.88
2023-04-01T02:27:00.778Z,100146.00
2023-04-01T02:29:30.213Z,100142.47
2023-04-01T02:31:59.157Z,100134.06
2023-04-01T02:34:28.570Z,100128.84
2023-04-01T02:36:59.797Z,100137.78
2023-04-01T02:39:28.471Z,100132.84
2023-04-01T02:41:56.727Z,100130.25
2023-04-01T02:44:24.975Z,100125.31
2023-04-01T02:46:54.012Z,100121.72
2023-04-01T02:49:23.405Z,100124.88
2023-04-01T02:51:52.943Z,100131.69
2023-04-01T02:54:22.649Z,100121.50
2023-04-01T02:56:50.955Z,100120.06
2023-04-01T02:59:19.255Z,100127.13
2023-04-01T03:01:47.532Z,100121.25
2023-04-01T03:04:16.084Z,100128.31
2023-04-01T03:06:45.171Z,100122.53
2023-04-01T03:09:13.538Z,100119.13
2023-04-01T03:11:43.281Z,100116.41
2023-04-01T03:14:11.579Z,100118.16
2023-04-01T03:16:40.493Z,100123.88
2023-04-01T03:19:08.929Z,100115.25
2023-04-01T03:21:37.182Z,100114.28
2023-04-01T03:24:05.709Z,100114.41
2023-04-01T03:26:35.755Z,100115.47
2023-04-01T03:29:05.822Z,100127.59
2023-04-01T03:31:34.383Z,100121.41
2023-04-01T03:34:02.709Z,100122.44
2023-04-01T03:36:31.614Z,100126.00
2023-04-01T03:38:59.895Z,100125.16
2023-04-01T03:41:39.602Z,100125.41
2023-04-01T03:44:09.206Z,100132.50
2023-04-01T03:46:37.580Z,100121.50
2023-04-01T03:49:12.485Z,100118.16
2023-04-01T03:51:41.569Z,100118.25
2023-04-01T03:54:10.266Z,100114.22
2023-04-01T03:56:38.738Z,100116.81
2023-04-01T03:59:09.722Z,100108.22
2023-04-01T04:01:38.018Z,100112.66
2023-04-01T04:04:06.815Z,100118.69
2023-04-01T04:06:35.485Z,100120.31
2023-04-01T04:09:03.873Z,100120.34
2023-04-01T04:11:33.925Z,100124.81
2023-04-01T04:14:03.212Z,100113.69
2023-04-01T04:16:33.384Z,100118.91
2023-04-01T04:19:04.321Z,100121.44
2023-04-01T04:21:32.612Z,100126.38
2023-04-01T04:24:02.174Z,100134.09
2023-04-01T04:26:40.564Z,100132.16
2023-04-01T04:29:08.878Z,100125.91
2023-04-01T04:31:38.636Z,100141.97
2023-04-01T04:34:06.888Z,100133.84
2023-04-01T04:36:37.187Z,100128.84
2023-04-01T04:39:05.883Z,100124.81
2023-04-01T04:41:37.590Z,100122.41
2023-04-01T04:44:06.993Z,100116.50
2023-04-01T04:46:35.634Z,100128.59
2023-04-01T04:49:14.624Z,100126.34
2023-04-01T04:51:42.962Z,100116.22
2023-04-01T04:54:11.938Z,100122.94
2023-04-01T04:56:58.260Z,100119.59
2023-04-01T04:59:28.295Z,100120.44
2023-04-01T05:02:10.350Z,100114.78
2023-04-01T05:04:40.133Z,100119.88
2023-04-01T05:07:11.005Z,100117.78
2023-04-01T05:09:39.597Z,100124.53
2023-04-01T05:12:08.705Z,100116.75
2023-04-01T05:14:57.354Z,100126.06
2023-04-01T05:17:26.264Z,100122.34
2023-04-01T05:19:57.231Z,100116.88
2023-04-01T05:22:25.789Z,100118.38
2023-04-01T05:24:54.440Z,100118.78
2023-04-01T05:27:23.043Z,100126.41
2023-04-01T05:29:51.300Z,100128.91
2023-04-01T05:32:42.493Z,100124.75
2023-04-01T05:35:14.170Z,100134.59
2023-04-01T05:37:42.441Z,100126.22
2023-04-01T05:40:12.394Z,100130.59
2023-04-01T05:42:40.690Z,100138.56
2023-04-01T05:45:10.038Z,100138.72
2023-04-01T05:47:56.799Z,100139.25
2023-04-01T05:50:26.493Z,100142.66
2023-04-01T05:52:55.253Z,100141.91
2023-04-01T05:55:24.959Z,100139.22
2023-04-01T05:57:53.633Z,100139.94
2023-04-01T06:00:23.377Z,100138.13
2023-04-01T06:02:53.480Z,100143.00
2023-04-01T06:05:24.242Z,100140.13
2023-04-01T06:08:00.108Z,100146.03
2023-04-01T06:10:43.321Z,100146.84
2023-04-01T06:13:23.826Z,100150.25
2023-04-01T06:16:00.983Z,100144.34
2023-04-01T06:18:52.228Z,100152.28
2023-04-01T06:21:38.673Z,100149.03
2023-04-01T06:24:28.287Z,100148.13
2023-04-01T06:27:05.033Z,100154.66
2023-04-01T06:30:03.214Z,100154.91
2023-04-01T06:33:03.440Z,100147.25
2023-04-01T06:35:54.611Z,100148.06
2023-04-01T06:38:43.975Z,100150.75
2023-04-01T06:41:41.395Z,100145.75
2023-04-01T06:44:20.064Z,100151.78
2023-04-01T06:47:31.336Z,100155.16
2023-04-01T06:50:24.846Z,100153.00
2023-04-01T06:53:20.194Z,100165.91
2023-04-01T06:56:14.392Z,100158.50
2023-04-01T06:59:14.557Z,100151.78
2023-04-01T07:01:47.582Z,100147.53
2023-04-01T07:04:19.210Z,100150.22
2023-04-01T07:06:52.647Z,100147.91
2023-04-01T07:09:24.014Z,100148.28
2023-04-01T07:12:42.144Z,100152.22
2023-04-01T07:15:37.639Z,100159.75
2023-04-01T07:18:17.258Z,100158.22
2023-04-01T07:20:46.848Z,100165.91
2023-04-01T07:23:23.871Z,100175.19
2023-04-01T07:26:19.183Z,100172.28
2023-04-01T07:29:11.412Z,100178.25
2023-04-01T07:32:13.569Z,100174.50
2023-04-01T07:34:52.027Z,100186.09
2023-04-01T07:37:28.148Z,100182.31
2023-04-01T07:40:04.356Z,100188.97
2023-04-01T07:42:52.282Z,100189.41
2023-04-01T07:45:26.738Z,100192.00
2023-04-01T07:48:10.718Z,100202.13
2023-04-01T07:50:51.156Z,100204.22
2023-04-01T07:53:26.751Z,100193.91
2023-04-01T07:56:05.426Z,100184.25
2023-04-01T07:58:46.876Z,100188.81
2023-04-01T08:01:38.441Z,100182.13
2023-04-01T08:04:26.325Z,100192.81
2023-04-01T08:07:04.791Z,100198.53
2023-04-01T08:09:45.208Z,100202.53
2023-04-01T08:12:49.823Z,100198.47
2023-04-01T08:15:45.057Z,100189.75
2023-04-01T08:18:35.956Z,100189.75
2023-04-01T08:21:12.492Z,100194.31
2023-04-01T08:23:46.185Z,100197.72
2023-04-01T08:26:25.632Z,100184.84
2023-04-01T08:28:59.281Z,100186.50
2023-04-01T08:31:34.782Z,100189.97
2023-04-01T08:34:06.457Z,100197.56
2023-04-01T08:36:39.488Z,100202.31
2023-04-01T08:39:18.458Z,100201.13
2023-04-01T08:42:33.034Z,100199.59
2023-04-01T08:45:28.443Z,100197.44
2023-04-01T08:48:38.462Z,100208.03
2023-04-01T08:51:44.177Z,100201.88
2023-04-01T08:54:54.614Z,100217.19
2023-04-01T08:57:44.581Z,100219.75
2023-04-01T09:00:43.779Z,100224.13
2023-04-01T09:03:50.626Z,100229.47
2023-04-01T09:06:40.988Z,100228.53
2023-04-01T09:09:30.953Z,100220.94
2023-04-01T09:12:46.748Z,100236.91
2023-04-01T09:15:37.713Z,100231.38
2023-04-01T09:18:32.907Z,100231.59
2023-04-01T09:21:22.294Z,100262.53
2023-04-01T09:24:22.703Z,100248.31
2023-04-01T09:27:06.589Z,100261.66
2023-04-01T09:30:10.293Z,100259.66
2023-04-01T09:33:08.667Z,100266.28
2023-04-01T09:35:48.075Z,100261.94
2023-04-01T09:38:25.011Z,100259.47
2023-04-01T09:40:59.512Z,100258.97
2023-04-01T09:43:57.902Z,100253.34
2023-04-01T09:46:37.110Z,100246.84
2023-04-01T09:49:34.154Z,100256.88
2023-04-01T09:52:17.388Z,100251.34
2023-04-01T09:54:59.594Z,100244.19
2023-04-01T09:58:05.127Z,100238.75
2023-04-01T10:04:53.378Z,100245.13
2023-04-01T10:08:08.926Z,100260.66
2023-04-01T10:10:52.888Z,100264.19
2023-04-01T10:14:04.093Z,100263.63
2023-04-01T10:17:06.022Z,100261.31
2023-04-01T10:19:57.843Z,100273.97
2023-04-01T10:22:54.106Z,100274.59
2023-04-01T10:25:59.756Z,100263.97
2023-04-01T10:28:52.199Z,100266.59
2023-04-01T10:32:24.228Z,100273.72
2023-04-01T10:35:24.922Z,100266.94
2023-04-01T10:38:16.956Z,100263.13
2023-04-01T10:41:32.662Z,100283.38
2023-04-01T10:45:00.580Z,100272.34
2023-04-01T10:48:15.296Z,100278.13
2023-04-01T10:51:10.776Z,100279.91
2023-04-01T10:54:21.250Z,100274.69
2023-04-01T10:57:02.243Z,100289.53
2023-04-01T11:00:22.374Z,100291.50
2023-04-01T11:03:57.172Z,100280.34
2023-04-01T11:07:09.323Z,100281.88
2023-04-01T11:10:06.735Z,100284.66
2023-04-01T11:13:23.916Z,100294.75
2023-04-01T11:16:24.749Z,100290.47
2023-04-01T11:19:26.359Z,100287.63
2023-04-01T11:22:33.721Z,100296.03
2023-04-01T11:25:37.937Z,100280.34
2023-04-01T11:28:58.438Z,100287.91
2023-04-01T11:31:46.128Z,100293.28
2023-04-01T11:34:30.835Z,100294.91
2023-04-01T11:37:07.919Z,100290.28
2023-04-01T11:39:49.116Z,100296.69
2023-04-01T11:42:46.192Z,100290.66
2023-04-01T11:45:51.229Z,100284.56
2023-04-01T11:48:36.642Z,100310.59
2023-04-01T11:51:27.126Z,100308.41
2023-04-01T11:54:06.472Z,100306.03
2023-04-01T11:56:50.551Z,100304.25
2023-04-01T11:59:46.723Z,100307.63
2023-04-01T12:02:23.201Z,100315.94
2023-04-01T12:05:04.921Z,100310.31
2023-04-01T12:07:55.631Z,100313.22
2023-04-01T12:10:31.258Z,100307.09
2023-04-01T12:13:07.637Z,100305.56
2023-04-01T12:15:56.737Z,100321.34
2023-04-01T12:18:30.966Z,100322.00
2023-04-01T12:21:08.303Z,100309.03
2023-04-01T12:24:17.517Z,100319.28
2023-04-01T12:27:04.480Z,100318.88
2023-04-01T12:30:00.826Z,100325.47
2023-04-01T12:32:39.329Z,100338.00
2023-04-01T12:35:23.757Z,100337.69
2023-04-01T12:38:05.579Z,100335.22
2023-04-01T12:40:53.724Z,100328.50
2023-04-01T12:44:07.999Z,100334.22
2023-04-01T12:46:59.314Z,100350.06
2023-04-01T12:49:47.107Z,100345.28
2023-04-01T12:52:18.520Z,100361.94
2023-04-01T12:55:37.325Z,100357.59
2023-04-01T12:58:43.963Z,100363.34
2023-04-01T13:01:44.432Z,100361.78
2023-04-01T13:04:53.134Z,100357.53
2023-04-01T13:08:02.618Z,100372.94
2023-04-01T13:10:47.276Z,100373.97
2023-04-01T13:13:44.124Z,100373.97
2023-04-01T13:16:17.400Z,100378.53
2023-04-01T13:19:01.543Z,100392.00
2023-04-01T13:21:41.965Z,100394.31
2023-04-01T13:24:26.000Z,100388.84
2023-04-01T13:27:05.752Z,100377.09
2023-04-01T13:29:38.171Z,100387.84
2023-04-01T13:32:13.685Z,100384.88
2023-04-01T13:34:50.144Z,100389.56
2023-04-01T13:37:35.984Z,100387.78
2023-04-01T13:40:34.365Z,100404.63
2023-04-01T13:43:06.986Z,100399.03
2023-04-01T13:45:41.355Z,100405.22
2023-04-01T13:48:33.069Z,100402.81
2023-04-01T13:52:16.329Z,100397.00
2023-04-01T13:55:20.838Z,100409.94
2023-04-01T13:58:19.844Z,100404.44
2023-04-01T14:01:03.564Z,100402.00
2023-04-01T14:03:45.565Z,100426.28
2023-04-01T14:06:27.643Z,100424.81
2023-04-01T14:09:27.377Z,100409.22
2023-04-01T14:12:04.700Z,100415.25
2023-04-01T14:14:45.804Z,100425.88
2023-04-01T14:17:37.451Z,100415.88
2023-04-01T14:20:41.587Z,100423.13
2023-04-01T14:23:32.841Z,100431.91
2023-04-01T14:26:22.292Z,100428.06
2023-04-01T14:29:05.162Z,100434.72
2023-04-01T14:31:45.803Z,100438.25
2023-04-01T14:34:32.742Z,100448.22
2023-04-01T14:37:15.545Z,100450.50
2023-04-01T14:40:15.050Z,100444.34
2023-04-01T14:43:09.682Z,100449.28
2023-04-01T14:46:11.880Z,100464.16
2023-04-01T14:48:51.642Z,100462.94
2023-04-01T14:51:26.141Z,100455.19
2023-04-01T14:54:03.033Z,100468.28
2023-04-01T14:56:39.455Z,100470.69
2023-04-01T14:59:12.677Z,100484.56
2023-04-01T15:01:56.681Z,100482.34
2023-04-01T15:04:53.156Z,100478.31
2023-04-01T15:08:07.709Z,100473.81
2023-04-01T15:10:49.754Z,100487.91
2023-04-01T15:13:29.371Z,100495.00
2023-04-01T15:16:11.011Z,100492.94
2023-04-01T15:18:52.836Z,100493.41
2023-04-01T15:21:43.961Z,100500.84
2023-04-01T15:24:22.628Z,100496.94
2023-04-01T15:27:35.532Z,100517.25
2023-04-01T15:30:24.027Z,100516.03
2023-04-01T15:33:13.612Z,100519.88
2023-04-01T15:36:03.602Z,100521.94
2023-04-01T15:38:38.505Z,100525.00
2023-04-01T15:41:27.001Z,100521.50
2023-04-01T15:43:55.113Z,100528.63
2023-04-01T15:46:46.894Z,100529.31
2023-04-01T15:49:33.856Z,100531.72
2023-04-01T15:52:12.756Z,100514.75
2023-04-01T15:55:18.103Z,100531.97
2023-04-01T15:58:02.851Z,100542.47
2023-04-01T16:00:32.326Z,100547.84
2023-04-01T16:03:25.095Z,100549.53
2023-04-01T16:06:10.810Z,100561.06
2023-04-01T16:09:03.983Z,100558.44
2023-04-01T16:11:45.185Z,100562.16
2023-04-01T16:14:31.022Z,100577.09
2023-04-01T16:17:14.421Z,100576.44
2023-04-01T16:19:53.675Z,100579.63
2023-04-01T16:22:27.888Z,100589.13
2023-04-01T16:25:16.676Z,100587.38
2023-04-01T16:27:55.848Z,100602.00
2023-04-01T16:30:37.947Z,100591.47
2023-04-01T16:33:13.808Z,100618.19
2023-04-01T16:35:51.586Z,100613.63
2023-04-01T16:38:27.523Z,100598.53
2023-04-01T16:41:12.578Z,100623.97
2023-04-01T16:43:47.989Z,100617.88
2023-04-01T16:46:36.435Z,100624.28
2023-04-01T16:49:27.752Z,100624.06
2023-04-01T16:52:06.962Z,100637.31
2023-04-01T16:54:45.469Z,100651.94
2023-04-01T16:57:25.597Z,100650.50
2023-04-01T17:00:01.972Z,100635.28
2023-04-01T17:02:36.022Z,100641.34
2023-04-01T17:05:08.014Z,100655.59
2023-04-01T17:07:46.704Z,100661.78
2023-04-01T17:10:35.092Z,100662.56
2023-04-01T17:13:48.869Z,100656.31
2023-04-01T17:16:42.163Z,100662.25
2023-04-01T17:19:19.095Z,100653.34
2023-04-01T17:22:03.535Z,100669.44
2023-04-01T17:24:53.289Z,100679.34
2023-04-01T17:27:36.841Z,100665.97
2023-04-01T17:30:18.747Z,100676.28
2023-04-01T17:33:02.154Z,100681.41
2023-04-01T17:35:37.129Z,100688.13
2023-04-01T17:38:19.420Z,100685.94
2023-04-01T17:40:59.395Z,100684.28
2023-04-01T17:43:40.016Z,100700.63
2023-04-01T17:46:26.554Z,100700.63
2023-04-01T17:49:02.885Z,100710.97
2023-04-01T17:51:38.587Z,100704.03
2023-04-01T17:54:23.090Z,100699.00
2023-04-01T17:57:07.597Z,100709.84
2023-04-01T17:59:40.489Z,100715.84
2023-04-01T18:02:26.068Z,100723.44
2023-04-01T18:05:24.281Z,100721.63
2023-04-01T18:08:13.944Z,100718.84
2023-04-01T18:10:58.362Z,100725.78
2023-04-01T18:13:58.776Z,100736.75
2023-04-01T18:16:46.284Z,100742.94
2023-04-01T18:19:26.395Z,100755.66
2023-04-01T18:21:58.211Z,100746.06
2023-04-01T18:24:31.417Z,100746.28
2023-04-01T18:27:06.544Z,100779.34
2023-04-01T18:29:42.716Z,100783.38
2023-04-01T18:32:28.722Z,100779.69
2023-04-01T18:35:05.021Z,100796.53
2023-04-01T18:37:39.230Z,100790.53
2023-04-01T18:40:19.518Z,100795.63
2023-04-01T18:43:00.726Z,100803.47
2023-04-01T18:45:34.012Z,100819.03
2023-04-01T18:48:19.803Z,100826.03
2023-04-01T18:50:56.344Z,100841.50
2023-04-01T18:53:32.143Z,100831.22
2023-04-01T18:56:03.560Z,100843.38
2023-04-01T18:58:37.038Z,100846.19
2023-04-01T19:01:17.582Z,100857.31
2023-04-01T19:03:57.824Z,100855.59
2023-04-01T19:06:32.824Z,100856.69
2023-04-01T19:09:18.181Z,100865.19
2023-04-01T19:12:18.312Z,100856.84
2023-04-01T19:15:04.801Z,100854.00
2023-04-01T19:17:47.798Z,100870.50
2023-04-01T19:20:23.466Z,100881.66
2023-04-01T19:23:18.688Z,100891.38
2023-04-01T19:25:51.866Z,100893.75
2023-04-01T19:28:36.760Z,100878.19
2023-04-01T19:31:17.464Z,100901.28
2023-04-01T19:33:57.293Z,100897.69
2023-04-01T19:36:34.377Z,100896.78
2023-04-01T19:39:20.076Z,100896.81
2023-04-01T19:41:54.026Z,100902.00
2023-04-01T19:44:36.670Z,100910.66
2023-04-01T19:47:10.696Z,100910.75
2023-04-01T19:49:50.039Z,100915.84
2023-04-01T19:52:26.150Z,100925.31
2023-04-01T19:55:03.252Z,100932.38
2023-04-01T19:57:40.830Z,100937.44
2023-04-01T20:00:25.277Z,100951.09
2023-04-01T20:03:03.654Z,100955.50
2023-04-01T20:05:41.152Z,100964.16
2023-04-01T20:08:16.951Z,100972.25
2023-04-01T20:10:58.442Z,100975.03
2023-04-01T20:13:33.386Z,100984.38
2023-04-01T20:16:06.815Z,100983.28
2023-04-01T20:18:50.401Z,100993.78
2023-04-01T20:21:32.329Z,101007.41
2023-04-01T20:24:04.072Z,101001.56
2023-04-01T20:26:37.849Z,101001.53
2023-04-01T20:29:26.569Z,101009.25
2023-04-01T20:32:07.186Z,101016.25
2023-04-01T20:34:47.595Z,101025.69
2023-04-01T20:37:30.763Z,101031.63
2023-04-01T20:40:26.162Z,101031.84
2023-04-01T20:43:42.521Z,101033.69
2023-04-01T20:46:21.645Z,101032.81
2023-04-01T20:49:36.070Z,101022.69
2023-04-01T20:52:19.362Z,101042.59
2023-04-01T20:55:17.143Z,101054.97
2023-04-01T20:57:52.524Z,101052.28
2023-04-01T21:00:33.938Z,101062.56
2023-04-01T21:03:26.634Z,101053.78
2023-04-01T21:06:29.494Z,101052.84
2023-04-01T21:09:10.247Z,101041.53
2023-04-01T21:11:48.199Z,101058.66
2023-04-01T21:14:42.185Z,101068.06
2023-04-01T21:17:20.324Z,101075.81
2023-04-01T21:20:11.143Z,101064.81
2023-04-01T21:22:47.700Z,101077.97
2023-04-01T21:25:32.942Z,101093.47
2023-04-01T21:28:26.343Z,101106.34
2023-04-01T21:31:14.818Z,101110.53
2023-04-01T21:34:00.061Z,101111.34
2023-04-01T21:36:46.534Z,101112.97
2023-04-01T21:39:38.973Z,101115.75
2023-04-01T21:42:21.865Z,101118.16
2023-04-01T21:45:11.827Z,101125.97
2023-04-01T21:48:28.979Z,101130.31
2023-04-01T21:51:48.691Z,101132.94
2023-04-01T21:54:48.967Z,101139.00
2023-04-01T21:57:48.010Z,101152.00
2023-04-01T22:00:21.232Z,101154.47
2023-04-01T22:03:27.848Z,101149.19
2023-04-01T22:06:03.424Z,101150.94
2023-04-01T22:08:54.184Z,101149.19
2023-04-01T22:11:45.983Z,101156.22
2023-04-01T22:14:22.525Z,101159.84
2023-04-01T22:16:56.610Z,101163.28
2023-04-01T22:19:32.699Z,101156.41
2023-04-01T22:22:07.833Z,101166.94
2023-04-01T22:24:45.779Z,101172.13
2023-04-01T22:27:24.031Z,101174.03
2023-04-01T22:30:03.937Z,101179.31
2023-04-01T22:32:43.133Z,101192.38
2023-04-01T22:35:21.542Z,101191.59
2023-04-01T22:37:59.561Z,101189.91
2023-04-01T22:40:33.682Z,101184.75
2023-04-01T22:43:07.325Z,101196.22
2023-04-01T22:46:02.159Z,101194.75
2023-04-01T22:48:39.451Z,101194.84
2023-04-01T22:51:15.985Z,101204.50
2023-04-01T22:53:55.990Z,101199.31
2023-04-01T22:56:30.135Z,101205.47
2023-04-01T22:59:12.814Z,101204.53
2023-04-01T23:01:46.455Z,101192.81
2023-04-01T23:04:19.949Z,101193.66
2023-04-01T23:06:53.558Z,101182.44
2023-04-01T23:09:23.885Z,101183.38
2023-04-01T23:11:55.476Z,101204.97
2023-04-01T23:14:39.201Z,101210.25
2023-04-01T23:17:20.818Z,101216.31
2023-04-01T23:19:56.768Z,101206.72
2023-04-01T23:22:31.432Z,101208.22
2023-04-01T23:25:11.000Z,101208.16
2023-04-01T23:27:47.104Z,101211.56
2023-04-01T23:30:51.787Z,101212.59
2023-04-01T23:33:26.190Z,101223.78
2023-04-01T23:35:56.363Z,101228.22
2023-04-01T23:38:28.303Z,101230.91
2023-04-01T23:40:57.585Z,101230.91
2023-04-01T23:43:29.014Z,101229.09
2023-04-01T23:45:59.040Z,101223.13
2023-04-01T23:48:31.391Z,101237.75
2023-04-01T23:51:00.553Z,101233.50
2023-04-01T23:53:31.800Z,101233.56
2023-04-01T23:56:00.532Z,101239.47
2023-04-01T23:58:41.146Z,101239.25
